createdAt,value
2023-02-18T00:01:44.890Z,4.20
2023-02-18T00:06:44.537Z,4.53
2023-02-18T00:11:43.279Z,4.80
2023-02-18T00:16:43.655Z,5.43
2023-02-18T00:21:43.259Z,3.95
2023-02-18T00:26:42.885Z,5.88
2023-02-18T00:31:41.897Z,6.40
2023-02-18T00:36:41.076Z,6.65
2023-02-18T00:41:39.952Z,6.32
2023-02-18T00:46:38.946Z,6.88
2023-02-18T00:51:38.370Z,6.70
2023-02-18T00:56:37.147Z,8.82
2023-02-18T01:01:36.071Z,5.15
2023-02-18T01:06:34.912Z,8.60
2023-02-18T01:11:34.941Z,7.35
2023-02-18T01:16:33.890Z,8.07
2023-02-18T01:21:32.715Z,6.70
2023-02-18T01:26:31.474Z,8.88
2023-02-18T01:31:30.436Z,5.38
2023-02-18T01:36:31.005Z,5.68
2023-02-18T01:41:29.765Z,6.15
2023-02-18T01:46:28.620Z,5.18
2023-02-18T01:51:32.056Z,5.95
2023-02-18T01:56:36.899Z,5.00
2023-02-18T02:01:36.266Z,5.97
2023-02-18T02:06:35.623Z,5.07
2023-02-18T02:11:49.622Z,2.55
2023-02-18T02:17:03.645Z,2.65
2023-02-18T02:22:20.658Z,4.60
2023-02-18T02:27:26.681Z,2.53
2023-02-18T02:32:53.505Z,3.50
2023-02-18T02:38:18.861Z,3.20
2023-02-18T02:43:43.847Z,3.13
2023-02-18T02:48:45.918Z,3.15
2023-02-18T02:53:44.733Z,4.75
2023-02-18T02:58:45.818Z,4.90
2023-02-18T03:04:12.095Z,3.80
2023-02-18T03:09:34.935Z,3.17
2023-02-18T03:14:47.482Z,5.32
2023-02-18T03:19:52.880Z,1.55
2023-02-18T03:24:54.435Z,3.78
2023-02-18T03:30:13.072Z,2.45
2023-02-18T03:35:15.807Z,4.55
2023-02-18T03:40:17.541Z,2.38
2023-02-18T03:45:16.438Z,4.68
2023-02-18T03:50:15.365Z,1.80
2023-02-18T03:55:14.343Z,3.65
2023-02-18T04:00:13.732Z,3.38
2023-02-18T04:05:12.716Z,4.57
2023-02-18T04:10:12.013Z,5.45
2023-02-18T04:15:10.882Z,3.33
2023-02-18T04:20:10.027Z,4.65
2023-02-18T04:25:08.970Z,4.22
2023-02-18T04:30:08.749Z,4.97
2023-02-18T04:35:07.686Z,8.20
2023-02-18T04:40:07.237Z,4.28
2023-02-18T04:45:06.498Z,4.65
2023-02-18T04:50:05.938Z,3.65
2023-02-18T04:55:06.843Z,7.47
2023-02-18T05:00:11.267Z,4.63
2023-02-18T05:05:10.158Z,5.70
2023-02-18T05:10:11.176Z,8.82
2023-02-18T05:15:10.406Z,7.32
2023-02-18T05:20:10.148Z,5.05
2023-02-18T05:25:09.134Z,7.82
2023-02-18T05:30:08.432Z,7.10
2023-02-18T05:35:07.772Z,12.43
2023-02-18T05:40:07.244Z,6.65
2023-02-18T05:45:06.258Z,5.68
2023-02-18T05:50:05.749Z,8.13
2023-02-18T05:55:04.980Z,6.93
2023-02-18T06:00:06.235Z,6.72
2023-02-18T06:05:06.374Z,8.23
2023-02-18T06:10:06.558Z,8.73
2023-02-18T06:15:05.814Z,6.22
2023-02-18T06:20:05.011Z,9.75
2023-02-18T06:25:03.784Z,8.30
2023-02-18T06:30:02.664Z,9.07
2023-02-18T06:35:01.452Z,10.30
2023-02-18T06:40:00.170Z,12.45
2023-02-18T06:44:58.878Z,10.95
2023-02-18T06:49:57.606Z,12.70
2023-02-18T06:54:56.561Z,9.98
2023-02-18T06:59:55.303Z,10.68
2023-02-18T07:04:54.012Z,11.75
2023-02-18T07:09:52.743Z,9.88
2023-02-18T07:14:51.582Z,11.15
2023-02-18T07:19:50.330Z,9.98
2023-02-18T07:24:53.160Z,11.95
2023-02-18T07:29:51.936Z,9.63
2023-02-18T07:34:53.968Z,9.10
2023-02-18T07:39:52.739Z,11.27
2023-02-18T07:44:51.447Z,9.32
2023-02-18T07:49:50.494Z,10.15
2023-02-18T07:54:49.909Z,10.25
2023-02-18T07:59:51.789Z,10.77
2023-02-18T08:04:51.249Z,12.63
2023-02-18T08:09:50.908Z,9.68
2023-02-18T08:14:51.288Z,9.05
2023-02-18T08:19:50.102Z,11.68
2023-02-18T08:24:48.856Z,9.60
2023-02-18T08:29:47.935Z,8.00
2023-02-18T08:34:46.771Z,8.52
2023-02-18T08:39:45.510Z,11.32
2023-02-18T08:44:44.325Z,11.48
2023-02-18T08:49:43.362Z,10.40
2023-02-18T08:54:42.715Z,12.82
2023-02-18T08:59:45.470Z,11.27
2023-02-18T09:04:44.617Z,12.90
2023-02-18T09:09:43.420Z,12.38
2023-02-18T09:14:45.440Z,13.13
2023-02-18T09:19:44.673Z,17.38
2023-02-18T09:24:43.535Z,12.90
2023-02-18T09:29:42.693Z,12.38
2023-02-18T09:34:41.526Z,13.23
2023-02-18T09:39:40.309Z,11.60
2023-02-18T09:44:46.191Z,13.13
2023-02-18T09:49:49.840Z,9.18
2023-02-18T09:54:49.628Z,4.55
2023-02-18T09:59:56.770Z,1.85
2023-02-18T10:04:57.441Z,3.17
2023-02-18T10:09:59.417Z,1.80
2023-02-18T10:15:01.163Z,1.10
2023-02-18T10:20:06.237Z,1.70
2023-02-18T10:25:07.825Z,0.77
2023-02-18T10:30:09.428Z,0.73
2023-02-18T10:35:27.290Z,1.00
2023-02-18T10:41:07.314Z,0.85
2023-02-18T10:46:13.839Z,1.52
2023-02-18T10:51:21.966Z,0.73
2023-02-18T10:56:35.572Z,0.95
2023-02-18T11:01:34.461Z,1.42
2023-02-18T11:06:45.266Z,0.45
2023-02-18T11:11:48.044Z,0.70
2023-02-18T11:16:56.572Z,0.40
2023-02-18T11:22:08.743Z,1.42
2023-02-18T11:27:37.725Z,2.30
2023-02-18T11:32:37.804Z,0.38
2023-02-18T11:37:38.349Z,0.57
2023-02-18T11:42:37.121Z,1.63
2023-02-18T11:47:37.704Z,0.30
2023-02-18T11:52:39.389Z,0.25
2023-02-18T11:57:42.379Z,0.40
2023-02-18T12:02:42.044Z,0.60
2023-02-18T12:07:50.307Z,0.80
2023-02-18T12:12:59.723Z,0.65
2023-02-18T12:18:16.402Z,0.98
2023-02-18T12:23:27.249Z,1.30
2023-02-18T12:29:03.428Z,1.30
2023-02-18T12:34:12.947Z,2.22
2023-02-18T12:39:15.291Z,1.77
2023-02-18T12:44:36.923Z,1.80
2023-02-18T12:55:17.471Z,1.10
2023-02-18T13:00:39.236Z,1.65
2023-02-18T13:06:01.560Z,2.42
2023-02-18T13:11:15.958Z,1.50
2023-02-18T13:16:19.880Z,1.75
2023-02-18T13:21:18.808Z,1.80
2023-02-18T13:26:19.557Z,1.20
2023-02-18T13:31:30.640Z,1.48
2023-02-18T13:36:59.110Z,1.63
2023-02-18T13:42:25.060Z,2.97
2023-02-18T13:47:49.820Z,0.80
2023-02-18T13:53:13.223Z,1.05
2023-02-18T13:58:22.583Z,0.85
2023-02-18T14:03:45.281Z,0.73
2023-02-18T14:08:45.481Z,1.10
2023-02-18T14:13:48.471Z,1.02
2023-02-18T14:18:47.266Z,2.35
2023-02-18T14:23:51.895Z,1.70
2023-02-18T14:29:00.249Z,1.48
2023-02-18T14:33:59.356Z,1.02
2023-02-18T14:39:13.804Z,1.13
2023-02-18T14:44:43.098Z,1.40
2023-02-18T14:49:49.903Z,1.45
2023-02-18T14:54:49.218Z,1.67
2023-02-18T14:59:48.577Z,0.70
2023-02-18T15:04:50.365Z,0.75
2023-02-18T15:09:58.076Z,0.82
2023-02-18T15:15:03.317Z,0.90
2023-02-18T15:20:06.556Z,1.42
2023-02-18T15:30:30.836Z,1.08
2023-02-18T15:35:33.175Z,1.58
2023-02-18T15:40:37.127Z,1.25
2023-02-18T15:45:42.522Z,0.52
2023-02-18T15:50:51.399Z,2.05
2023-02-18T15:55:56.507Z,0.60
2023-02-18T16:01:01.029Z,0.38
2023-02-18T16:06:17.830Z,0.75
2023-02-18T16:11:16.753Z,0.85
2023-02-18T16:16:29.712Z,0.38
2023-02-18T16:21:35.073Z,1.45
2023-02-18T16:26:40.023Z,1.05
2023-02-18T16:31:39.169Z,1.85
2023-02-18T16:36:37.955Z,1.15
2023-02-18T16:41:36.710Z,0.90
2023-02-18T16:46:36.778Z,1.52
2023-02-18T16:51:35.643Z,0.90
2023-02-18T16:56:35.517Z,0.98
2023-02-18T17:01:38.298Z,0.98
2023-02-18T17:06:37.130Z,0.57
2023-02-18T17:11:36.424Z,0.63
2023-02-18T17:16:35.454Z,0.75
2023-02-18T17:21:34.405Z,0.50
2023-02-18T17:26:33.205Z,0.82
2023-02-18T17:31:37.716Z,0.80
2023-02-18T17:36:36.797Z,0.52
2023-02-18T17:41:35.553Z,0.52
2023-02-18T17:46:34.370Z,0.70
2023-02-18T17:51:34.990Z,1.00
2023-02-18T17:56:36.244Z,2.17
2023-02-18T18:01:35.448Z,3.60
2023-02-18T18:06:36.110Z,0.85
2023-02-18T18:11:35.585Z,0.77
2023-02-18T18:16:34.604Z,1.10
2023-02-18T18:21:35.633Z,0.90
2023-02-18T18:26:34.400Z,1.00
2023-02-18T18:31:33.460Z,0.70
2023-02-18T18:36:32.275Z,0.93
2023-02-18T18:41:31.047Z,1.13
2023-02-18T18:46:29.951Z,1.42
2023-02-18T18:51:30.817Z,1.10
2023-02-18T18:56:29.801Z,1.60
2023-02-18T19:01:29.290Z,1.30
2023-02-18T19:06:28.087Z,0.80
2023-02-18T19:11:27.065Z,1.10
2023-02-18T19:16:42.680Z,1.92
2023-02-18T19:21:42.647Z,1.65
2023-02-18T19:26:41.399Z,1.20
2023-02-18T19:31:40.437Z,1.05
2023-02-18T19:36:39.496Z,1.90
2023-02-18T19:41:38.255Z,1.20
2023-02-18T19:46:37.070Z,2.15
2023-02-18T19:51:35.810Z,1.30
2023-02-18T19:56:34.542Z,1.02
2023-02-18T20:01:33.347Z,2.10
2023-02-18T20:06:32.155Z,2.33
2023-02-18T20:11:32.013Z,1.33
2023-02-18T20:16:30.761Z,1.13
2023-02-18T20:21:30.625Z,2.28
2023-02-18T20:26:29.356Z,1.50
2023-02-18T20:31:28.159Z,1.27
2023-02-18T20:36:28.108Z,3.28
2023-02-18T20:41:27.045Z,1.10
2023-02-18T20:46:26.359Z,1.50
2023-02-18T20:51:25.160Z,1.23
2023-02-18T20:56:23.998Z,1.50
2023-02-18T21:01:22.806Z,1.92
2023-02-18T21:06:23.868Z,1.20
2023-02-18T21:11:26.354Z,2.40
2023-02-18T21:16:27.793Z,1.40
2023-02-18T21:21:27.247Z,1.88
2023-02-18T21:26:26.879Z,2.25
2023-02-18T21:31:31.696Z,3.00
2023-02-18T21:36:31.684Z,2.30
2023-02-18T21:41:31.022Z,2.58
2023-02-18T21:46:32.695Z,1.77
2023-02-18T21:52:08.212Z,1.58
2023-02-18T21:57:12.002Z,1.92
2023-02-18T22:02:26.361Z,1.83
2023-02-18T22:07:27.246Z,2.80
2023-02-18T22:12:26.575Z,2.83
2023-02-18T22:17:25.428Z,2.17
2023-02-18T22:22:24.210Z,3.97
2023-02-18T22:27:24.268Z,5.13
2023-02-18T22:32:23.150Z,2.67
2023-02-18T22:37:22.081Z,3.30
2023-02-18T22:42:20.888Z,3.92
2023-02-18T22:47:19.750Z,3.53
2023-02-18T22:52:18.487Z,4.18
2023-02-18T22:57:17.262Z,3.83
2023-02-18T23:02:16.025Z,4.60
2023-02-18T23:07:14.806Z,3.88
2023-02-18T23:12:13.759Z,3.97
2023-02-18T23:17:18.462Z,3.22
2023-02-18T23:22:30.367Z,3.65
2023-02-18T23:27:30.063Z,3.45
2023-02-18T23:32:30.673Z,2.38
2023-02-18T23:37:48.023Z,3.75
2023-02-18T23:42:47.308Z,2.15
2023-02-18T23:47:46.241Z,2.72
2023-02-18T23:52:48.705Z,3.97
2023-02-18T23:57:47.534Z,3.72
